sensor_id;sensor_type;location;lat;lon;timestamp;P1;durP1;ratioP1;P2;durP2;ratioP2
15913;SDS011;8055;51.930;8.840;2023-07-13T00:02:14;4.55;;;2.50;;
15913;SDS011;8055;51.930;8.840;2023-07-13T00:04:40;6.03;;;2.17;;
15913;SDS011;8055;51.930;8.840;2023-07-13T00:07:06;4.65;;;2.13;;
15913;SDS011;8055;51.930;8.840;2023-07-13T00:09:32;3.53;;;2.17;;
15913;SDS011;8055;51.930;8.840;2023-07-13T00:11:58;4.45;;;2.20;;
15913;SDS011;8055;51.930;8.840;2023-07-13T00:14:23;5.97;;;2.60;;
15913;SDS011;8055;51.930;8.840;2023-07-13T00:16:50;5.15;;;2.42;;
15913;SDS011;8055;51.930;8.840;2023-07-13T00:19:15;5.35;;;2.13;;
15913;SDS011;8055;51.930;8.840;2023-07-13T00:21:41;3.92;;;2.17;;
15913;SDS011;8055;51.930;8.840;2023-07-13T00:24:08;4.82;;;2.47;;
15913;SDS011;8055;51.930;8.840;2023-07-13T00:26:38;5.63;;;2.45;;
15913;SDS011;8055;51.930;8.840;2023-07-13T00:29:03;4.38;;;2.08;;
15913;SDS011;8055;51.930;8.840;2023-07-13T00:31:30;7.25;;;2.70;;
15913;SDS011;8055;51.930;8.840;2023-07-13T00:33:55;4.68;;;2.30;;
15913;SDS011;8055;51.930;8.840;2023-07-13T00:36:21;4.50;;;2.30;;
15913;SDS011;8055;51.930;8.840;2023-07-13T00:38:47;5.03;;;2.72;;
15913;SDS011;8055;51.930;8.840;2023-07-13T00:41:12;7.28;;;2.35;;
15913;SDS011;8055;51.930;8.840;2023-07-13T00:43:40;9.82;;;2.30;;
15913;SDS011;8055;51.930;8.840;2023-07-13T00:46:22;5.10;;;2.30;;
15913;SDS011;8055;51.930;8.840;2023-07-13T00:48:53;5.32;;;2.72;;
15913;SDS011;8055;51.930;8.840;2023-07-13T00:51:23;5.15;;;2.40;;
15913;SDS011;8055;51.930;8.840;2023-07-13T00:53:53;4.18;;;2.38;;
15913;SDS011;8055;51.930;8.840;2023-07-13T00:56:21;5.35;;;2.13;;
15913;SDS011;8055;51.930;8.840;2023-07-13T00:58:47;5.55;;;2.60;;
15913;SDS011;8055;51.930;8.840;2023-07-13T01:01:12;3.30;;;2.20;;
15913;SDS011;8055;51.930;8.840;2023-07-13T01:03:38;3.83;;;2.20;;
15913;SDS011;8055;51.930;8.840;2023-07-13T01:06:05;6.13;;;2.38;;
15913;SDS011;8055;51.930;8.840;2023-07-13T01:08:31;9.13;;;2.58;;
15913;SDS011;8055;51.930;8.840;2023-07-13T01:10:57;4.97;;;2.28;;
15913;SDS011;8055;51.930;8.840;2023-07-13T01:13:25;8.23;;;2.60;;
15913;SDS011;8055;51.930;8.840;2023-07-13T01:15:51;4.43;;;2.15;;
15913;SDS011;8055;51.930;8.840;2023-07-13T01:18:19;4.85;;;2.40;;
15913;SDS011;8055;51.930;8.840;2023-07-13T01:21:04;6.55;;;2.67;;
15913;SDS011;8055;51.930;8.840;2023-07-13T01:23:30;5.10;;;2.53;;
15913;SDS011;8055;51.930;8.840;2023-07-13T01:25:57;5.50;;;2.47;;
15913;SDS011;8055;51.930;8.840;2023-07-13T01:28:24;5.57;;;2.50;;
15913;SDS011;8055;51.930;8.840;2023-07-13T01:30:52;5.70;;;2.10;;
15913;SDS011;8055;51.930;8.840;2023-07-13T01:33:19;3.15;;;2.00;;
15913;SDS011;8055;51.930;8.840;2023-07-13T01:35:45;4.53;;;2.22;;
15913;SDS011;8055;51.930;8.840;2023-07-13T01:38:13;8.70;;;2.28;;
15913;SDS011;8055;51.930;8.840;2023-07-13T01:40:40;5.97;;;2.58;;
15913;SDS011;8055;51.930;8.840;2023-07-13T01:43:06;6.32;;;2.35;;
15913;SDS011;8055;51.930;8.840;2023-07-13T01:45:32;2.97;;;2.20;;
15913;SDS011;8055;51.930;8.840;2023-07-13T01:47:58;5.68;;;2.10;;
15913;SDS011;8055;51.930;8.840;2023-07-13T01:50:24;6.72;;;2.67;;
15913;SDS011;8055;51.930;8.840;2023-07-13T01:52:49;8.25;;;2.47;;
15913;SDS011;8055;51.930;8.840;2023-07-13T01:55:15;5.90;;;2.30;;
15913;SDS011;8055;51.930;8.840;2023-07-13T01:57:40;5.57;;;2.67;;
15913;SDS011;8055;51.930;8.840;2023-07-13T02:00:06;5.97;;;2.70;;
15913;SDS011;8055;51.930;8.840;2023-07-13T02:02:34;6.30;;;2.35;;
15913;SDS011;8055;51.930;8.840;2023-07-13T02:04:59;4.70;;;2.78;;
15913;SDS011;8055;51.930;8.840;2023-07-13T02:07:25;7.30;;;2.35;;
15913;SDS011;8055;51.930;8.840;2023-07-13T02:09:50;4.72;;;2.00;;
15913;SDS011;8055;51.930;8.840;2023-07-13T02:12:15;5.38;;;2.50;;
15913;SDS011;8055;51.930;8.840;2023-07-13T02:14:41;7.60;;;2.33;;
15913;SDS011;8055;51.930;8.840;2023-07-13T02:17:06;7.50;;;2.70;;
15913;SDS011;8055;51.930;8.840;2023-07-13T02:19:32;5.60;;;2.80;;
15913;SDS011;8055;51.930;8.840;2023-07-13T02:21:57;7.45;;;2.45;;
15913;SDS011;8055;51.930;8.840;2023-07-13T02:24:23;6.60;;;2.70;;
15913;SDS011;8055;51.930;8.840;2023-07-13T02:26:48;7.95;;;3.25;;
15913;SDS011;8055;51.930;8.840;2023-07-13T02:29:13;5.18;;;2.95;;
15913;SDS011;8055;51.930;8.840;2023-07-13T02:31:39;7.45;;;3.20;;
15913;SDS011;8055;51.930;8.840;2023-07-13T02:34:04;8.32;;;3.40;;
15913;SDS011;8055;51.930;8.840;2023-07-13T02:36:30;7.63;;;2.85;;
15913;SDS011;8055;51.930;8.840;2023-07-13T02:38:57;5.90;;;3.35;;
15913;SDS011;8055;51.930;8.840;2023-07-13T02:41:26;5.72;;;3.03;;
15913;SDS011;8055;51.930;8.840;2023-07-13T02:43:51;6.57;;;3.40;;
15913;SDS011;8055;51.930;8.840;2023-07-13T02:46:16;5.88;;;2.85;;
15913;SDS011;8055;51.930;8.840;2023-07-13T02:48:42;6.95;;;3.47;;
15913;SDS011;8055;51.930;8.840;2023-07-13T02:51:07;6.00;;;3.63;;
15913;SDS011;8055;51.930;8.840;2023-07-13T02:53:33;6.57;;;3.17;;
15913;SDS011;8055;51.930;8.840;2023-07-13T02:56:00;5.22;;;3.30;;
15913;SDS011;8055;51.930;8.840;2023-07-13T02:58:25;5.43;;;3.55;;
15913;SDS011;8055;51.930;8.840;2023-07-13T03:00:51;10.48;;;3.35;;
15913;SDS011;8055;51.930;8.840;2023-07-13T03:03:17;5.55;;;3.03;;
15913;SDS011;8055;51.930;8.840;2023-07-13T03:05:44;7.32;;;3.83;;
15913;SDS011;8055;51.930;8.840;2023-07-13T03:08:15;7.07;;;3.72;;
15913;SDS011;8055;51.930;8.840;2023-07-13T03:10:40;6.70;;;3.95;;
15913;SDS011;8055;51.930;8.840;2023-07-13T03:13:05;10.57;;;4.15;;
15913;SDS011;8055;51.930;8.840;2023-07-13T03:15:31;8.00;;;4.18;;
15913;SDS011;8055;51.930;8.840;2023-07-13T03:17:56;10.18;;;3.92;;
15913;SDS011;8055;51.930;8.840;2023-07-13T03:20:22;7.63;;;4.18;;
15913;SDS011;8055;51.930;8.840;2023-07-13T03:22:47;7.28;;;4.05;;
15913;SDS011;8055;51.930;8.840;2023-07-13T03:25:12;10.30;;;4.10;;
15913;SDS011;8055;51.930;8.840;2023-07-13T03:27:38;7.13;;;3.97;;
15913;SDS011;8055;51.930;8.840;2023-07-13T03:30:04;7.00;;;3.70;;
15913;SDS011;8055;51.930;8.840;2023-07-13T03:32:30;10.07;;;3.53;;
15913;SDS011;8055;51.930;8.840;2023-07-13T03:34:56;9.68;;;3.95;;
15913;SDS011;8055;51.930;8.840;2023-07-13T03:37:21;8.43;;;3.85;;
15913;SDS011;8055;51.930;8.840;2023-07-13T03:39:46;6.85;;;3.17;;
15913;SDS011;8055;51.930;8.840;2023-07-13T03:42:12;7.72;;;3.88;;
15913;SDS011;8055;51.930;8.840;2023-07-13T03:44:38;8.38;;;3.78;;
15913;SDS011;8055;51.930;8.840;2023-07-13T03:47:05;5.82;;;3.15;;
15913;SDS011;8055;51.930;8.840;2023-07-13T03:49:31;10.13;;;3.55;;
15913;SDS011;8055;51.930;8.840;2023-07-13T03:51:57;5.88;;;3.20;;
15913;SDS011;8055;51.930;8.840;2023-07-13T03:54:22;9.05;;;3.42;;
15913;SDS011;8055;51.930;8.840;2023-07-13T03:56:47;6.85;;;3.05;;
15913;SDS011;8055;51.930;8.840;2023-07-13T03:59:13;6.30;;;2.88;;
15913;SDS011;8055;51.930;8.840;2023-07-13T04:01:38;8.20;;;3.00;;
15913;SDS011;8055;51.930;8.840;2023-07-13T04:04:04;7.30;;;2.72;;
15913;SDS011;8055;51.930;8.840;2023-07-13T04:06:30;11.40;;;3.28;;
15913;SDS011;8055;51.930;8.840;2023-07-13T04:08:56;7.53;;;3.30;;
15913;SDS011;8055;51.930;8.840;2023-07-13T04:11:24;8.55;;;3.20;;
15913;SDS011;8055;51.930;8.840;2023-07-13T04:13:52;7.78;;;2.92;;
15913;SDS011;8055;51.930;8.840;2023-07-13T04:16:18;7.57;;;2.53;;
15913;SDS011;8055;51.930;8.840;2023-07-13T04:18:44;5.07;;;2.50;;
15913;SDS011;8055;51.930;8.840;2023-07-13T04:21:11;10.32;;;2.80;;
15913;SDS011;8055;51.930;8.840;2023-07-13T04:23:37;8.48;;;2.80;;
15913;SDS011;8055;51.930;8.840;2023-07-13T04:26:02;6.75;;;2.60;;
15913;SDS011;8055;51.930;8.840;2023-07-13T04:28:28;9.60;;;2.70;;
15913;SDS011;8055;51.930;8.840;2023-07-13T04:30:54;8.77;;;2.45;;
15913;SDS011;8055;51.930;8.840;2023-07-13T04:33:19;7.38;;;2.22;;
15913;SDS011;8055;51.930;8.840;2023-07-13T04:35:51;7.95;;;2.50;;
15913;SDS011;8055;51.930;8.840;2023-07-13T04:38:24;7.80;;;2.70;;
15913;SDS011;8055;51.930;8.840;2023-07-13T04:40:55;3.97;;;1.90;;
15913;SDS011;8055;51.930;8.840;2023-07-13T04:43:23;7.15;;;2.33;;
15913;SDS011;8055;51.930;8.840;2023-07-13T04:45:50;6.88;;;2.38;;
15913;SDS011;8055;51.930;8.840;2023-07-13T04:48:15;6.85;;;2.33;;
15913;SDS011;8055;51.930;8.840;2023-07-13T04:50:41;4.25;;;2.20;;
15913;SDS011;8055;51.930;8.840;2023-07-13T04:53:06;6.28;;;1.88;;
15913;SDS011;8055;51.930;8.840;2023-07-13T04:55:32;7.35;;;2.33;;
15913;SDS011;8055;51.930;8.840;2023-07-13T04:57:57;4.53;;;2.13;;
15913;SDS011;8055;51.930;8.840;2023-07-13T05:00:26;7.07;;;2.25;;
15913;SDS011;8055;51.930;8.840;2023-07-13T05:02:51;9.35;;;2.50;;
15913;SDS011;8055;51.930;8.840;2023-07-13T05:05:17;10.85;;;2.33;;
15913;SDS011;8055;51.930;8.840;2023-07-13T05:07:42;6.95;;;2.20;;
15913;SDS011;8055;51.930;8.840;2023-07-13T05:10:09;8.15;;;2.30;;
15913;SDS011;8055;51.930;8.840;2023-07-13T05:12:34;6.05;;;2.05;;
15913;SDS011;8055;51.930;8.840;2023-07-13T05:15:01;9.88;;;2.10;;
15913;SDS011;8055;51.930;8.840;2023-07-13T05:17:27;9.18;;;2.03;;
15913;SDS011;8055;51.930;8.840;2023-07-13T05:19:53;5.10;;;1.80;;
15913;SDS011;8055;51.930;8.840;2023-07-13T05:22:19;5.53;;;1.90;;
15913;SDS011;8055;51.930;8.840;2023-07-13T05:24:44;7.05;;;1.85;;
15913;SDS011;8055;51.930;8.840;2023-07-13T05:27:10;5.65;;;1.90;;
15913;SDS011;8055;51.930;8.840;2023-07-13T05:29:36;9.02;;;2.10;;
15913;SDS011;8055;51.930;8.840;2023-07-13T05:32:01;14.43;;;2.28;;
15913;SDS011;8055;51.930;8.840;2023-07-13T05:34:27;6.43;;;1.95;;
15913;SDS011;8055;51.930;8.840;2023-07-13T05:36:52;8.32;;;2.33;;
15913;SDS011;8055;51.930;8.840;2023-07-13T05:39:18;7.13;;;2.42;;
15913;SDS011;8055;51.930;8.840;2023-07-13T05:41:44;7.53;;;2.38;;
15913;SDS011;8055;51.930;8.840;2023-07-13T05:44:09;4.18;;;1.90;;
15913;SDS011;8055;51.930;8.840;2023-07-13T05:46:34;6.18;;;2.03;;
15913;SDS011;8055;51.930;8.840;2023-07-13T05:49:00;6.97;;;2.42;;
15913;SDS011;8055;51.930;8.840;2023-07-13T05:51:26;7.82;;;2.15;;
15913;SDS011;8055;51.930;8.840;2023-07-13T05:53:51;8.98;;;2.40;;
15913;SDS011;8055;51.930;8.840;2023-07-13T05:56:16;6.03;;;2.05;;
15913;SDS011;8055;51.930;8.840;2023-07-13T05:58:42;8.18;;;2.65;;
15913;SDS011;8055;51.930;8.840;2023-07-13T06:01:11;8.65;;;2.35;;
15913;SDS011;8055;51.930;8.840;2023-07-13T06:03:38;6.22;;;1.55;;
15913;SDS011;8055;51.930;8.840;2023-07-13T06:06:07;5.63;;;1.90;;
15913;SDS011;8055;51.930;8.840;2023-07-13T06:08:34;11.13;;;2.42;;
15913;SDS011;8055;51.930;8.840;2023-07-13T06:11:13;4.93;;;2.28;;
15913;SDS011;8055;51.930;8.840;2023-07-13T06:13:41;9.23;;;1.85;;
15913;SDS011;8055;51.930;8.840;2023-07-13T06:16:06;6.07;;;1.90;;
15913;SDS011;8055;51.930;8.840;2023-07-13T06:18:33;9.13;;;1.80;;
15913;SDS011;8055;51.930;8.840;2023-07-13T06:21:00;7.78;;;1.83;;
15913;SDS011;8055;51.930;8.840;2023-07-13T06:23:25;7.80;;;2.15;;
15913;SDS011;8055;51.930;8.840;2023-07-13T06:25:51;8.93;;;2.53;;
15913;SDS011;8055;51.930;8.840;2023-07-13T06:28:17;6.82;;;2.28;;
15913;SDS011;8055;51.930;8.840;2023-07-13T06:30:42;7.95;;;2.40;;
15913;SDS011;8055;51.930;8.840;2023-07-13T06:33:07;7.90;;;2.22;;
15913;SDS011;8055;51.930;8.840;2023-07-13T06:35:33;6.75;;;2.13;;
15913;SDS011;8055;51.930;8.840;2023-07-13T06:37:58;7.85;;;2.10;;
15913;SDS011;8055;51.930;8.840;2023-07-13T06:40:24;7.45;;;2.00;;
15913;SDS011;8055;51.930;8.840;2023-07-13T06:42:49;6.22;;;2.20;;
15913;SDS011;8055;51.930;8.840;2023-07-13T06:45:15;7.00;;;2.20;;
15913;SDS011;8055;51.930;8.840;2023-07-13T06:47:40;7.45;;;2.20;;
15913;SDS011;8055;51.930;8.840;2023-07-13T06:50:06;6.80;;;2.28;;
15913;SDS011;8055;51.930;8.840;2023-07-13T06:52:32;6.68;;;2.03;;
15913;SDS011;8055;51.930;8.840;2023-07-13T06:54:58;7.70;;;1.98;;
15913;SDS011;8055;51.930;8.840;2023-07-13T06:57:23;8.88;;;2.55;;
15913;SDS011;8055;51.930;8.840;2023-07-13T06:59:48;5.88;;;1.95;;
15913;SDS011;8055;51.930;8.840;2023-07-13T07:02:14;8.93;;;2.50;;
15913;SDS011;8055;51.930;8.840;2023-07-13T07:04:39;9.75;;;2.33;;
15913;SDS011;8055;51.930;8.840;2023-07-13T07:07:04;9.90;;;2.63;;
15913;SDS011;8055;51.930;8.840;2023-07-13T07:09:30;7.57;;;2.25;;
15913;SDS011;8055;51.930;8.840;2023-07-13T07:11:56;7.45;;;2.47;;
15913;SDS011;8055;51.930;8.840;2023-07-13T07:14:22;11.00;;;2.70;;
15913;SDS011;8055;51.930;8.840;2023-07-13T07:16:47;7.10;;;2.20;;
15913;SDS011;8055;51.930;8.840;2023-07-13T07:19:13;8.32;;;2.47;;
15913;SDS011;8055;51.930;8.840;2023-07-13T07:21:38;7.50;;;2.60;;
15913;SDS011;8055;51.930;8.840;2023-07-13T07:24:04;5.28;;;2.30;;
15913;SDS011;8055;51.930;8.840;2023-07-13T07:26:30;15.00;;;2.88;;
15913;SDS011;8055;51.930;8.840;2023-07-13T07:28:56;6.68;;;2.55;;
15913;SDS011;8055;51.930;8.840;2023-07-13T07:31:21;9.50;;;2.63;;
15913;SDS011;8055;51.930;8.840;2023-07-13T07:33:46;7.00;;;2.53;;
15913;SDS011;8055;51.930;8.840;2023-07-13T07:36:14;6.32;;;2.50;;
15913;SDS011;8055;51.930;8.840;2023-07-13T07:38:40;8.48;;;2.60;;
15913;SDS011;8055;51.930;8.840;2023-07-13T07:41:05;10.38;;;3.15;;
15913;SDS011;8055;51.930;8.840;2023-07-13T07:43:31;7.13;;;2.78;;
15913;SDS011;8055;51.930;8.840;2023-07-13T07:45:57;12.18;;;3.30;;
15913;SDS011;8055;51.930;8.840;2023-07-13T07:48:22;10.85;;;2.60;;
15913;SDS011;8055;51.930;8.840;2023-07-13T07:50:48;8.95;;;3.10;;
15913;SDS011;8055;51.930;8.840;2023-07-13T07:53:13;8.77;;;3.13;;
15913;SDS011;8055;51.930;8.840;2023-07-13T07:55:39;8.40;;;2.58;;
15913;SDS011;8055;51.930;8.840;2023-07-13T07:58:05;8.48;;;3.00;;
15913;SDS011;8055;51.930;8.840;2023-07-13T08:00:31;10.35;;;2.85;;
15913;SDS011;8055;51.930;8.840;2023-07-13T08:02:57;15.40;;;3.05;;
15913;SDS011;8055;51.930;8.840;2023-07-13T08:05:23;8.05;;;2.88;;
15913;SDS011;8055;51.930;8.840;2023-07-13T08:07:49;9.07;;;2.88;;
15913;SDS011;8055;51.930;8.840;2023-07-13T08:10:15;15.98;;;2.95;;
15913;SDS011;8055;51.930;8.840;2023-07-13T08:12:40;5.45;;;2.40;;
15913;SDS011;8055;51.930;8.840;2023-07-13T08:15:06;10.40;;;3.03;;
15913;SDS011;8055;51.930;8.840;2023-07-13T08:17:36;7.88;;;3.00;;
15913;SDS011;8055;51.930;8.840;2023-07-13T08:20:01;9.68;;;2.85;;
15913;SDS011;8055;51.930;8.840;2023-07-13T08:22:27;10.43;;;2.83;;
15913;SDS011;8055;51.930;8.840;2023-07-13T08:24:53;9.57;;;2.47;;
15913;SDS011;8055;51.930;8.840;2023-07-13T08:27:22;9.75;;;3.13;;
15913;SDS011;8055;51.930;8.840;2023-07-13T08:29:49;6.10;;;2.70;;
15913;SDS011;8055;51.930;8.840;2023-07-13T08:32:15;8.65;;;2.78;;
15913;SDS011;8055;51.930;8.840;2023-07-13T08:34:40;6.30;;;2.33;;
15913;SDS011;8055;51.930;8.840;2023-07-13T08:37:06;7.90;;;2.67;;
15913;SDS011;8055;51.930;8.840;2023-07-13T08:39:32;5.90;;;2.35;;
15913;SDS011;8055;51.930;8.840;2023-07-13T08:47:46;9.32;;;2.40;;
15913;SDS011;8055;51.930;8.840;2023-07-13T08:50:19;5.63;;;2.67;;
15913;SDS011;8055;51.930;8.840;2023-07-13T08:52:49;7.82;;;2.08;;
15913;SDS011;8055;51.930;8.840;2023-07-13T08:55:15;12.38;;;2.83;;
15913;SDS011;8055;51.930;8.840;2023-07-13T08:57:44;7.90;;;2.47;;
15913;SDS011;8055;51.930;8.840;2023-07-13T09:00:13;7.97;;;2.80;;
15913;SDS011;8055;51.930;8.840;2023-07-13T09:05:40;8.23;;;2.75;;
15913;SDS011;8055;51.930;8.840;2023-07-13T09:11:43;9.15;;;2.53;;
15913;SDS011;8055;51.930;8.840;2023-07-13T09:14:13;13.32;;;2.97;;
15913;SDS011;8055;51.930;8.840;2023-07-13T09:17:04;8.60;;;2.75;;
15913;SDS011;8055;51.930;8.840;2023-07-13T09:19:35;8.13;;;3.00;;
15913;SDS011;8055;51.930;8.840;2023-07-13T09:22:02;9.05;;;2.67;;
15913;SDS011;8055;51.930;8.840;2023-07-13T09:27:19;7.45;;;2.47;;
15913;SDS011;8055;51.930;8.840;2023-07-13T09:29:49;8.55;;;2.65;;
15913;SDS011;8055;51.930;8.840;2023-07-13T09:32:22;5.20;;;2.38;;
15913;SDS011;8055;51.930;8.840;2023-07-13T09:34:54;8.68;;;2.47;;
15913;SDS011;8055;51.930;8.840;2023-07-13T09:37:24;7.75;;;2.72;;
15913;SDS011;8055;51.930;8.840;2023-07-13T09:39:55;6.88;;;2.30;;
15913;SDS011;8055;51.930;8.840;2023-07-13T09:42:23;6.30;;;2.63;;
15913;SDS011;8055;51.930;8.840;2023-07-13T09:44:52;10.05;;;2.47;;
15913;SDS011;8055;51.930;8.840;2023-07-13T09:47:20;6.05;;;2.53;;
15913;SDS011;8055;51.930;8.840;2023-07-13T09:49:48;9.23;;;2.33;;
15913;SDS011;8055;51.930;8.840;2023-07-13T09:52:20;8.10;;;2.58;;
15913;SDS011;8055;51.930;8.840;2023-07-13T09:54:50;7.00;;;2.53;;
15913;SDS011;8055;51.930;8.840;2023-07-13T09:57:19;6.28;;;2.38;;
15913;SDS011;8055;51.930;8.840;2023-07-13T09:59:49;8.10;;;2.38;;
15913;SDS011;8055;51.930;8.840;2023-07-13T10:02:37;7.80;;;2.28;;
15913;SDS011;8055;51.930;8.840;2023-07-13T10:05:02;6.38;;;2.60;;
15913;SDS011;8055;51.930;8.840;2023-07-13T10:07:37;8.32;;;2.15;;
15913;SDS011;8055;51.930;8.840;2023-07-13T10:10:12;6.38;;;2.30;;
15913;SDS011;8055;51.930;8.840;2023-07-13T10:12:43;6.35;;;2.33;;
15913;SDS011;8055;51.930;8.840;2023-07-13T10:15:16;8.70;;;2.72;;
15913;SDS011;8055;51.930;8.840;2023-07-13T10:17:44;9.45;;;2.47;;
15913;SDS011;8055;51.930;8.840;2023-07-13T10:20:10;7.72;;;2.30;;
15913;SDS011;8055;51.930;8.840;2023-07-13T10:25:22;6.72;;;2.22;;
15913;SDS011;8055;51.930;8.840;2023-07-13T10:27:51;5.15;;;2.30;;
15913;SDS011;8055;51.930;8.840;2023-07-13T10:30:21;7.07;;;2.25;;
15913;SDS011;8055;51.930;8.840;2023-07-13T10:32:50;7.25;;;2.58;;
15913;SDS011;8055;51.930;8.840;2023-07-13T10:35:18;8.02;;;2.28;;
15913;SDS011;8055;51.930;8.840;2023-07-13T10:38:19;5.35;;;2.25;;
15913;SDS011;8055;51.930;8.840;2023-07-13T10:40:43;6.07;;;2.22;;
15913;SDS011;8055;51.930;8.840;2023-07-13T10:43:22;5.70;;;2.40;;
15913;SDS011;8055;51.930;8.840;2023-07-13T10:45:52;7.45;;;2.33;;
15913;SDS011;8055;51.930;8.840;2023-07-13T10:48:19;7.25;;;2.80;;
15913;SDS011;8055;51.930;8.840;2023-07-13T10:50:48;3.45;;;2.30;;
15913;SDS011;8055;51.930;8.840;2023-07-13T10:53:21;5.38;;;2.65;;
15913;SDS011;8055;51.930;8.840;2023-07-13T10:55:55;6.72;;;2.47;;
15913;SDS011;8055;51.930;8.840;2023-07-13T11:01:03;7.38;;;2.70;;
15913;SDS011;8055;51.930;8.840;2023-07-13T11:03:34;5.63;;;3.20;;
15913;SDS011;8055;51.930;8.840;2023-07-13T11:18:45;5.82;;;2.70;;
15913;SDS011;8055;51.930;8.840;2023-07-13T11:21:17;5.47;;;2.35;;
15913;SDS011;8055;51.930;8.840;2023-07-13T11:23:45;7.13;;;2.50;;
15913;SDS011;8055;51.930;8.840;2023-07-13T11:29:14;6.55;;;2.63;;
15913;SDS011;8055;51.930;8.840;2023-07-13T11:32:10;4.15;;;2.20;;
15913;SDS011;8055;51.930;8.840;2023-07-13T11:34:51;4.97;;;2.15;;
15913;SDS011;8055;51.930;8.840;2023-07-13T11:37:19;6.68;;;2.45;;
15913;SDS011;8055;51.930;8.840;2023-07-13T11:39:45;7.18;;;2.20;;
15913;SDS011;8055;51.930;8.840;2023-07-13T11:42:15;4.85;;;1.85;;
15913;SDS011;8055;51.930;8.840;2023-07-13T11:44:46;6.20;;;2.20;;
15913;SDS011;8055;51.930;8.840;2023-07-13T11:47:21;6.17;;;2.37;;
15913;SDS011;8055;51.930;8.840;2023-07-13T11:49:49;7.20;;;2.42;;
15913;SDS011;8055;51.930;8.840;2023-07-13T11:52:18;6.78;;;2.10;;
15913;SDS011;8055;51.930;8.840;2023-07-13T11:54:54;3.92;;;1.77;;
15913;SDS011;8055;51.930;8.840;2023-07-13T11:59:52;5.32;;;1.98;;
15913;SDS011;8055;51.930;8.840;2023-07-13T12:02:29;4.40;;;1.85;;
15913;SDS011;8055;51.930;8.840;2023-07-13T12:04:58;5.45;;;2.05;;
15913;SDS011;8055;51.930;8.840;2023-07-13T12:07:27;6.22;;;2.05;;
15913;SDS011;8055;51.930;8.840;2023-07-13T12:12:48;3.90;;;1.80;;
15913;SDS011;8055;51.930;8.840;2023-07-13T12:15:17;6.82;;;2.38;;
15913;SDS011;8055;51.930;8.840;2023-07-13T12:17:43;5.43;;;2.00;;
15913;SDS011;8055;51.930;8.840;2023-07-13T12:20:17;5.50;;;1.88;;
15913;SDS011;8055;51.930;8.840;2023-07-13T12:22:49;6.13;;;2.05;;
15913;SDS011;8055;51.930;8.840;2023-07-13T12:25:16;5.38;;;2.22;;
15913;SDS011;8055;51.930;8.840;2023-07-13T12:27:46;4.72;;;1.90;;
15913;SDS011;8055;51.930;8.840;2023-07-13T12:32:58;4.97;;;1.92;;
15913;SDS011;8055;51.930;8.840;2023-07-13T12:35:26;5.72;;;2.00;;
15913;SDS011;8055;51.930;8.840;2023-07-13T12:37:55;6.45;;;2.17;;
15913;SDS011;8055;51.930;8.840;2023-07-13T12:40:26;4.80;;;2.03;;
15913;SDS011;8055;51.930;8.840;2023-07-13T12:42:57;6.93;;;2.58;;
15913;SDS011;8055;51.930;8.840;2023-07-13T12:45:24;7.30;;;2.17;;
15913;SDS011;8055;51.930;8.840;2023-07-13T12:47:53;6.82;;;1.85;;
15913;SDS011;8055;51.930;8.840;2023-07-13T12:50:30;7.32;;;2.28;;
15913;SDS011;8055;51.930;8.840;2023-07-13T12:53:02;6.22;;;2.05;;
15913;SDS011;8055;51.930;8.840;2023-07-13T12:55:32;5.50;;;2.15;;
15913;SDS011;8055;51.930;8.840;2023-07-13T12:58:09;7.53;;;2.10;;
15913;SDS011;8055;51.930;8.840;2023-07-13T13:00:47;6.88;;;2.42;;
15913;SDS011;8055;51.930;8.840;2023-07-13T13:05:58;6.50;;;2.25;;
15913;SDS011;8055;51.930;8.840;2023-07-13T13:08:28;4.60;;;2.50;;
15913;SDS011;8055;51.930;8.840;2023-07-13T13:10:55;6.78;;;2.60;;
15913;SDS011;8055;51.930;8.840;2023-07-13T13:13:21;4.72;;;2.08;;
15913;SDS011;8055;51.930;8.840;2023-07-13T13:15:46;5.50;;;2.55;;
15913;SDS011;8055;51.930;8.840;2023-07-13T13:18:19;5.50;;;2.90;;
15913;SDS011;8055;51.930;8.840;2023-07-13T13:20:47;10.35;;;3.05;;
15913;SDS011;8055;51.930;8.840;2023-07-13T13:23:14;7.03;;;2.90;;
15913;SDS011;8055;51.930;8.840;2023-07-13T13:25:42;5.93;;;2.95;;
15913;SDS011;8055;51.930;8.840;2023-07-13T13:28:17;7.80;;;2.95;;
15913;SDS011;8055;51.930;8.840;2023-07-13T13:30:44;5.72;;;2.75;;
15913;SDS011;8055;51.930;8.840;2023-07-13T13:33:13;4.10;;;2.20;;
15913;SDS011;8055;51.930;8.840;2023-07-13T13:35:42;7.22;;;2.60;;
15913;SDS011;8055;51.930;8.840;2023-07-13T13:40:41;6.25;;;2.67;;
15913;SDS011;8055;51.930;8.840;2023-07-13T13:43:15;7.00;;;2.60;;
15913;SDS011;8055;51.930;8.840;2023-07-13T13:45:43;8.93;;;3.00;;
15913;SDS011;8055;51.930;8.840;2023-07-13T13:48:17;6.18;;;2.25;;
15913;SDS011;8055;51.930;8.840;2023-07-13T13:50:45;6.88;;;2.85;;
15913;SDS011;8055;51.930;8.840;2023-07-13T13:53:13;7.80;;;2.85;;
15913;SDS011;8055;51.930;8.840;2023-07-13T13:55:39;4.57;;;2.35;;
15913;SDS011;8055;51.930;8.840;2023-07-13T13:58:07;5.03;;;1.90;;
15913;SDS011;8055;51.930;8.840;2023-07-13T14:00:33;4.28;;;2.20;;
15913;SDS011;8055;51.930;8.840;2023-07-13T14:02:58;6.53;;;2.75;;
15913;SDS011;8055;51.930;8.840;2023-07-13T14:05:25;5.88;;;2.30;;
15913;SDS011;8055;51.930;8.840;2023-07-13T14:07:51;4.88;;;2.17;;
15913;SDS011;8055;51.930;8.840;2023-07-13T14:10:20;3.92;;;2.17;;
15913;SDS011;8055;51.930;8.840;2023-07-13T14:12:48;5.88;;;2.33;;
15913;SDS011;8055;51.930;8.840;2023-07-13T14:15:18;5.00;;;2.20;;
15913;SDS011;8055;51.930;8.840;2023-07-13T14:17:47;9.45;;;2.63;;
15913;SDS011;8055;51.930;8.840;2023-07-13T14:20:15;7.53;;;2.80;;
15913;SDS011;8055;51.930;8.840;2023-07-13T14:22:41;8.95;;;2.83;;
15913;SDS011;8055;51.930;8.840;2023-07-13T14:25:10;4.20;;;2.25;;
15913;SDS011;8055;51.930;8.840;2023-07-13T14:27:40;9.05;;;3.20;;
15913;SDS011;8055;51.930;8.840;2023-07-13T14:30:13;7.72;;;2.30;;
15913;SDS011;8055;51.930;8.840;2023-07-13T14:32:43;8.13;;;2.70;;
15913;SDS011;8055;51.930;8.840;2023-07-13T14:35:12;5.32;;;2.72;;
15913;SDS011;8055;51.930;8.840;2023-07-13T14:37:39;7.10;;;2.65;;
15913;SDS011;8055;51.930;8.840;2023-07-13T14:40:25;6.57;;;3.00;;
15913;SDS011;8055;51.930;8.840;2023-07-13T14:42:54;6.97;;;2.58;;
15913;SDS011;8055;51.930;8.840;2023-07-13T14:45:20;5.95;;;2.55;;
15913;SDS011;8055;51.930;8.840;2023-07-13T14:47:46;8.00;;;2.83;;
15913;SDS011;8055;51.930;8.840;2023-07-13T14:50:13;7.35;;;3.30;;
15913;SDS011;8055;51.930;8.840;2023-07-13T14:52:42;4.47;;;2.33;;
15913;SDS011;8055;51.930;8.840;2023-07-13T14:55:17;7.07;;;2.85;;
15913;SDS011;8055;51.930;8.840;2023-07-13T14:57:44;5.63;;;2.97;;
15913;SDS011;8055;51.930;8.840;2023-07-13T15:00:18;9.63;;;3.53;;
15913;SDS011;8055;51.930;8.840;2023-07-13T15:02:50;8.77;;;3.83;;
15913;SDS011;8055;51.930;8.840;2023-07-13T15:07:44;6.00;;;3.25;;
15913;SDS011;8055;51.930;8.840;2023-07-13T15:10:17;7.25;;;3.20;;
15913;SDS011;8055;51.930;8.840;2023-07-13T15:12:44;7.78;;;3.85;;
15913;SDS011;8055;51.930;8.840;2023-07-13T15:15:10;6.13;;;3.22;;
15913;SDS011;8055;51.930;8.840;2023-07-13T15:17:42;6.47;;;3.45;;
15913;SDS011;8055;51.930;8.840;2023-07-13T15:22:55;6.13;;;3.35;;
15913;SDS011;8055;51.930;8.840;2023-07-13T15:25:22;7.53;;;3.40;;
15913;SDS011;8055;51.930;8.840;2023-07-13T15:27:50;10.57;;;3.80;;
15913;SDS011;8055;51.930;8.840;2023-07-13T15:30:16;7.18;;;3.22;;
15913;SDS011;8055;51.930;8.840;2023-07-13T15:32:42;5.10;;;3.33;;
15913;SDS011;8055;51.930;8.840;2023-07-13T15:35:29;7.03;;;3.88;;
15913;SDS011;8055;51.930;8.840;2023-07-13T15:37:54;3.90;;;3.10;;
15913;SDS011;8055;51.930;8.840;2023-07-13T15:40:20;6.03;;;3.20;;
15913;SDS011;8055;51.930;8.840;2023-07-13T15:42:48;5.45;;;3.33;;
15913;SDS011;8055;51.930;8.840;2023-07-13T15:45:23;4.63;;;3.28;;
15913;SDS011;8055;51.930;8.840;2023-07-13T15:47:53;7.47;;;3.70;;
15913;SDS011;8055;51.930;8.840;2023-07-13T15:50:20;5.10;;;3.10;;
15913;SDS011;8055;51.930;8.840;2023-07-13T15:52:54;5.40;;;3.10;;
15913;SDS011;8055;51.930;8.840;2023-07-13T15:55:23;6.13;;;3.33;;
15913;SDS011;8055;51.930;8.840;2023-07-13T15:57:49;4.95;;;3.38;;
15913;SDS011;8055;51.930;8.840;2023-07-13T16:00:21;4.55;;;3.00;;